| time (UTC) | temp F | wind direction | speed MPH | gust MPH | rain 1hr in | rain 24hr in | rain mn in | humidity % | barometer mb |
| 20260902211539 | 87 | 188 | 5.0 | 12.0 | 0.01 | 0.53 | 0.12 | 68 | 1012.0 |
| 20260902210012 | 89 | 240 | 1.0 | 5.0 | 0.01 | 0.52 | 0.11 | 63 | 1011.9 |
| 20260902204528 | 91 | 199 | 5.0 | 15.0 | 0.01 | 0.52 | 0.11 | 62 | 1012.4 |
| 20260902203059 | 92 | 173 | 4.0 | 11.0 | 0.01 | 0.52 | 0.11 | 62 | 1012.0 |
| 20260902203002 | 92 | 217 | 3.0 | 11.0 | 0.01 | 0.52 | 0.11 | 62 | 1012.0 |
| 20260902201536 | 93 | 169 | 0.0 | 5.0 | 0.01 | 0.52 | 0.11 | 61 | 1012.3 |
| 20260902200050 | 93 | 171 | 3.0 | 9.0 | 0.00 | 0.51 | 0.10 | 56 | 1012.2 |
| 20260902194511 | 94 | 203 | 2.0 | 7.0 | 0.00 | 0.51 | 0.10 | 58 | 1012.2 |
| 20260902193035 | 93 | 202 | 3.0 | 9.0 | 0.00 | 0.51 | 0.10 | 59 | 1012.4 |
| 20260902191558 | 92 | 160 | 1.0 | 7.0 | 0.00 | 0.51 | 0.10 | 59 | 1012.7 |
| 20260902191516 | 92 | 186 | 1.0 | 7.0 | 0.00 | 0.51 | 0.10 | 60 | 1012.7 |
| 20260902190026 | 91 | 187 | 2.0 | 8.0 | 0.00 | 0.51 | 0.10 | 61 | 1012.9 |
| 20260902184552 | 91 | 172 | 1.0 | 3.0 | 0.00 | 0.51 | 0.10 | 63 | 1013.0 |
| 20260902183017 | 90 | 296 | 2.0 | 9.0 | 0.00 | 0.51 | 0.10 | 64 | 1013.4 |
| 20260902181540 | 89 | 166 | 1.0 | 7.0 | 0.00 | 0.51 | 0.10 | 66 | 1013.7 |
| 20260902180009 | 88 | 162 | 2.0 | 11.0 | 0.00 | 0.51 | 0.10 | 67 | 1014.0 |
| 20260902174550 | 88 | 192 | 1.0 | 8.0 | 0.00 | 0.51 | 0.10 | 68 | 1014.3 |
| 20260902173020 | 87 | 313 | 1.0 | 9.0 | 0.00 | 0.51 | 0.10 | 71 | 1014.6 |
| 20260902171543 | 86 | 273 | 1.0 | 8.0 | 0.00 | 0.51 | 0.10 | 74 | 1014.8 |
| 20260902170100 | 85 | 188 | 3.0 | 6.0 | 0.00 | 0.51 | 0.10 | 76 | 1015.2 |
| 20260902170001 | 85 | 174 | 3.0 | 7.0 | 0.00 | 0.51 | 0.10 | 76 | 1015.2 |
| 20260902164529 | 84 | 203 | 3.0 | 8.0 | 0.00 | 0.51 | 0.10 | 79 | 1015.3 |
| 20260902163053 | 83 | 205 | 1.0 | 8.0 | 0.00 | 0.51 | 0.10 | 82 | 1015.4 |
| 20260902163003 | 83 | 205 | 1.0 | 8.0 | 0.00 | 0.51 | 0.10 | 82 | 1015.5 |
| 20260902161517 | 82 | 240 | 3.0 | 9.0 | 0.00 | 0.51 | 0.10 | 84 | 1015.4 |
| 20260902160059 | 81 | 220 | 1.0 | 12.0 | 0.00 | 0.51 | 0.10 | 86 | 1015.4 |
| 20260902154507 | 80 | 280 | 3.0 | 9.0 | 0.00 | 0.51 | 0.10 | 88 | 1015.4 |
| 20260902153038 | 80 | 196 | 0.0 | 11.0 | 0.00 | 0.51 | 0.10 | 88 | 1015.3 |
| 20260902151553 | 79 | 213 | 1.0 | 4.0 | 0.00 | 0.51 | 0.10 | 88 | 1015.2 |
| 20260902150023 | 79 | 271 | 3.0 | 7.0 | 0.00 | 0.51 | 0.10 | 89 | 1015.3 |
| 20260902144543 | 79 | 198 | 0.0 | 5.0 | 0.00 | 0.51 | 0.10 | 89 | 1015.2 |
| 20260902143014 | 78 | 213 | 3.0 | 5.0 | 0.00 | 0.51 | 0.10 | 89 | 1015.3 |
| 20260902141530 | 78 | 254 | 1.0 | 4.0 | 0.00 | 0.51 | 0.10 | 89 | 1015.2 |
| 20260902140055 | 78 | 155 | 1.0 | 6.0 | 0.00 | 0.51 | 0.10 | 89 | 1015.1 |
| 20260902134521 | 78 | 205 | 0.0 | 6.0 | 0.00 | 0.51 | 0.10 | 89 | 1015.0 |
| 20260902133047 | 78 | 188 | 1.0 | 7.0 | 0.00 | 0.51 | 0.10 | 89 | 1014.9 |
| 20260902131511 | 78 | 190 | 1.0 | 5.0 | 0.00 | 0.51 | 0.10 | 89 | 1014.8 |
| 20260902130036 | 78 | 252 | 0.0 | 4.0 | 0.00 | 0.51 | 0.10 | 89 | 1014.7 |
| 20260902124503 | 78 | 236 | 0.0 | 4.0 | 0.00 | 0.51 | 0.10 | 89 | 1014.4 |
| 20260902123043 | 78 | 319 | 0.0 | 4.0 | 0.00 | 0.51 | 0.10 | 89 | 1014.2 |
| 20260902121558 | 78 | 257 | 0.0 | 3.0 | 0.00 | 0.51 | 0.10 | 89 | 1013.4 |
| 20260902121502 | 78 | 257 | 1.0 | 4.0 | 0.00 | 0.51 | 0.10 | 89 | 1013.5 |
| 20260902120035 | 78 | 209 | 0.0 | 3.0 | 0.01 | 0.51 | 0.10 | 88 | 1013.3 |
| 20260902114558 | 78 | 249 | 0.0 | 4.0 | 0.02 | 0.51 | 0.10 | 88 | 1013.2 |
| 20260902113034 | 78 | 268 | 1.0 | 4.0 | 0.10 | 0.51 | 0.10 | 88 | 1012.9 |
| 20260902111602 | 78 | 217 | 2.0 | 7.0 | 0.10 | 0.51 | 0.10 | 87 | 1012.8 |
| 20260902110018 | 78 | 249 | 2.0 | 5.0 | 0.09 | 0.50 | 0.09 | 86 | 1012.6 |
| 20260902104547 | 78 | 252 | 0.0 | 3.0 | 0.08 | 0.49 | 0.08 | 85 | 1012.8 |
| 20260902103016 | 78 | 275 | 1.0 | 3.0 | 0.00 | 0.41 | 0.00 | 84 | 1012.7 |
| 20260902101547 | 78 | 254 | 2.0 | 5.0 | 0.00 | 0.41 | 0.00 | 84 | 1012.9 |
| 20260902100010 | 77 | 268 | 1.0 | 4.0 | 0.00 | 0.41 | 0.00 | 84 | 1013.1 |
| 20260902094532 | 77 | 189 | 1.0 | 5.0 | 0.00 | 0.41 | 0.00 | 84 | 1013.0 |
| 20260902093008 | 77 | 197 | 2.0 | 4.0 | 0.00 | 0.41 | 0.00 | 85 | 1013.0 |
| 20260902091534 | 77 | 217 | 1.0 | 4.0 | 0.00 | 0.41 | 0.00 | 86 | 1013.0 |
| 20260902090011 | 77 | 196 | 0.0 | 4.0 | 0.00 | 0.41 | 0.00 | 86 | 1013.0 |
| 20260902084534 | 77 | 213 | 1.0 | 3.0 | 0.00 | 0.41 | 0.00 | 86 | 1013.0 |
| 20260902083010 | 77 | 213 | 1.0 | 5.0 | 0.00 | 0.41 | 0.00 | 87 | 1013.0 |
| 20260902081529 | 77 | 248 | 1.0 | 3.0 | 0.00 | 0.41 | 0.00 | 88 | 1012.8 |
| 20260902080002 | 76 | 213 | 1.0 | 5.0 | 0.00 | 0.41 | 0.00 | 89 | 1012.9 |
| 20260902074538 | 76 | 305 | 2.0 | 5.0 | 0.00 | 0.41 | 0.00 | 89 | 1012.9 |
| 20260902073059 | 76 | 210 | 1.0 | 3.0 | 0.00 | 0.41 | 0.00 | 89 | 1013.1 |
| 20260902071533 | 76 | 205 | 1.0 | 3.0 | 0.00 | 0.41 | 0.00 | 89 | 1013.1 |
| 20260902070100 | 76 | 260 | 1.0 | 4.0 | 0.00 | 0.41 | 0.00 | 89 | 1013.1 |
| 20260902064537 | 76 | 242 | 1.0 | 4.0 | 0.00 | 0.41 | 0.00 | 89 | 1013.3 |
| 20260902063102 | 76 | 279 | 1.0 | 3.0 | 0.00 | 0.41 | 0.00 | 89 | 1013.2 |
| 20260902061517 | 76 | 273 | 0.0 | 3.0 | 0.00 | 0.41 | 0.00 | 89 | 1013.1 |
| 20260902060056 | 76 | 283 | 0.0 | 3.0 | 0.00 | 0.41 | 0.00 | 89 | 1013.2 |
| 20260902054526 | 76 | 283 | 0.0 | 4.0 | 0.00 | 0.41 | 0.00 | 89 | 1013.0 |
| 20260902053057 | 77 | 247 | 0.0 | 5.0 | 0.00 | 0.41 | 0.00 | 89 | 1013.0 |
| 20260902053004 | 77 | 247 | 0.0 | 5.0 | 0.00 | 0.41 | 0.00 | 89 | 1013.0 |
| 20260902051520 | 77 | 71 | 0.0 | 2.0 | 0.00 | 0.41 | 0.00 | 89 | 1013.2 |
| 20260902050047 | 77 | 71 | 0.0 | 2.0 | 0.00 | 0.41 | 0.00 | 89 | 1013.0 |
| 20260902044543 | 77 | 71 | 0.0 | 0.0 | 0.00 | 0.41 | 0.41 | 89 | 1013.3 |
| 20260902043014 | 77 | 71 | 0.0 | 2.0 | 0.00 | 0.41 | 0.41 | 89 | 1013.2 |
| 20260902041551 | 77 | 71 | 0.0 | 0.0 | 0.00 | 0.41 | 0.41 | 89 | 1013.2 |
| 20260902040011 | 77 | 71 | 0.0 | 0.0 | 0.00 | 0.41 | 0.41 | 89 | 1013.2 |
| 20260902034547 | 77 | 71 | 0.0 | 1.0 | 0.00 | 0.41 | 0.41 | 89 | 1013.2 |
| 20260902033007 | 77 | 71 | 0.0 | 0.0 | 0.00 | 0.41 | 0.41 | 89 | 1013.4 |
| 20260902031540 | 77 | 71 | 0.0 | 1.0 | 0.00 | 0.41 | 0.41 | 89 | 1013.4 |
| 20260902030018 | 77 | 71 | 0.0 | 0.0 | 0.00 | 0.41 | 0.41 | 89 | 1013.5 |
| 20260902024548 | 78 | 71 | 0.0 | 0.0 | 0.00 | 0.41 | 0.41 | 89 | 1013.5 |
| 20260902023022 | 78 | 71 | 0.0 | 1.0 | 0.00 | 0.41 | 0.41 | 89 | 1013.1 |
| 20260902021548 | 78 | 71 | 0.0 | 0.0 | 0.00 | 0.41 | 0.41 | 89 | 1013.0 |
| 20260902020044 | 78 | 71 | 0.0 | 0.0 | 0.00 | 0.41 | 0.41 | 89 | 1012.8 |
| 20260902014606 | 78 | 71 | 0.0 | 0.0 | 0.00 | 0.41 | 0.41 | 89 | 1013.0 |
| 20260902013035 | 78 | 71 | 0.0 | 0.0 | 0.00 | 0.41 | 0.41 | 89 | 1012.6 |
| 20260902011602 | 78 | 71 | 0.0 | 0.0 | 0.00 | 0.41 | 0.41 | 88 | 1012.6 |
| 20260902010035 | 78 | 71 | 0.0 | 0.0 | 0.00 | 0.41 | 0.41 | 88 | 1012.5 |
| 20260902004552 | 78 | 71 | 0.0 | 1.0 | 0.00 | 0.41 | 0.41 | 88 | 1012.7 |
| 20260902004503 | 78 | 71 | 0.0 | 1.0 | 0.00 | 0.41 | 0.41 | 88 | 1012.6 |
| 20260902003020 | 78 | 71 | 0.0 | 0.0 | 0.00 | 0.41 | 0.41 | 88 | 1012.7 |
| 20260902001558 | 77 | 71 | 0.0 | 0.0 | 0.00 | 0.41 | 0.41 | 88 | 1012.9 |
| 20260902000029 | 77 | 71 | 0.0 | 1.0 | 0.00 | 0.41 | 0.41 | 87 | 1012.8 |
| 20260901234555 | 77 | 71 | 0.0 | 2.0 | 0.00 | 0.41 | 0.41 | 87 | 1012.8 |
| 20260901233019 | 78 | 71 | 0.0 | 2.0 | 0.02 | 0.41 | 0.41 | 86 | 1012.9 |
| 20260901231546 | 78 | 71 | 0.0 | 2.0 | 0.05 | 0.41 | 0.41 | 85 | 1013.0 |
| 20260901230010 | 79 | 71 | 0.0 | 3.0 | 0.08 | 0.41 | 0.41 | 84 | 1013.2 |
| 20260901224534 | 79 | 67 | 0.0 | 2.0 | 0.13 | 0.62 | 0.41 | 83 | 1013.5 |
| 20260901223110 | 80 | 67 | 0.0 | 1.0 | 0.39 | 0.60 | 0.40 | 82 | 1013.8 |
| 20260901223003 | 80 | 67 | 0.0 | 1.0 | 0.39 | 0.60 | 0.39 | 82 | 1013.8 |
| 20260901221538 | 80 | 67 | 0.0 | 0.0 | 0.36 | 0.56 | 0.36 | 80 | 1014.3 |
| 20260901220059 | 82 | 67 | 0.0 | 2.0 | 0.33 | 0.54 | 0.33 | 78 | 1014.4 |
| 20260901220007 | 82 | 67 | 0.0 | 2.0 | 0.33 | 0.54 | 0.33 | 78 | 1014.4 |
| 20260901214535 | 84 | 67 | 1.0 | 8.0 | 0.26 | 0.52 | 0.27 | 74 | 1014.3 |
| 20260901213002 | 89 | 72 | 3.0 | 8.0 | 0.00 | 0.26 | 0.00 | 62 | 1014.0 |